Time;durP1;ratioP1;P1;durP2;ratioP2;P2;SDS_P1;SDS_P2;PMS_P1;PMS_P2;Temp;Humidity;BMP_temperature;BMP_pressure;BME280_temperature;BME280_humidity;BME280_pressure;Samples;Min_cycle;Max_cycle;Signal;HPM_P1;HPM_P2
2022/05/24 00:01:17;;;;;;;18.70;2.80;;;;;;;17.58;nan;101203.56;4831346;29;20459;-88
2022/05/24 00:03:47;;;;;;;14.37;2.40;;;;;;;17.54;nan;101213.38;4755190;30;20521;-88
2022/05/24 00:06:15;;;;;;;10.73;2.37;;;;;;;17.52;nan;101201.69;4751076;30;21035;-88
2022/05/24 00:08:45;;;;;;;15.30;2.40;;;;;;;17.38;nan;101187.16;4769051;30;20460;-88
2022/05/24 00:11:14;;;;;;;10.77;2.10;;;;;;;17.47;nan;101193.25;4769459;30;20490;-88
2022/05/24 00:13:44;;;;;;;13.57;2.87;;;;;;;17.39;nan;101188.03;4769336;30;20516;-88
2022/05/24 00:16:12;;;;;;;8.57;1.60;;;;;;;17.42;nan;101206.91;4769360;30;20464;-88
2022/05/24 00:18:40;;;;;;;13.73;2.70;;;;;;;17.43;nan;101203.94;4769281;30;20479;-88
2022/05/24 00:21:09;;;;;;;10.30;2.40;;;;;;;17.44;nan;101199.25;4771449;29;20459;-88
2022/05/24 00:23:38;;;;;;;10.60;2.37;;;;;;;17.39;nan;101207.38;4830902;29;20511;-88
2022/05/24 00:26:07;;;;;;;9.60;1.90;;;;;;;17.43;nan;101208.59;4860691;29;20974;-88
2022/05/24 00:28:36;;;;;;;8.97;2.00;;;;;;;17.38;nan;101211.19;4816036;29;20458;-88
2022/05/24 00:31:04;;;;;;;10.27;1.80;;;;;;;17.44;nan;101200.09;4815648;29;20978;-88
2022/05/24 00:33:34;;;;;;;8.13;1.73;;;;;;;17.37;nan;101210.34;4830695;29;20458;-88
2022/05/24 00:36:03;;;;;;;9.47;2.37;;;;;;;17.35;nan;101206.13;4845897;29;20500;-89
2022/05/24 00:38:47;;;;;;;8.13;1.87;;;;;;;17.29;82.90;101224.47;5085409;27;20529;-88
2022/05/24 00:41:44;;;;;;;9.87;2.80;;;;;;;17.33;82.76;101219.31;5060742;28;20929;-87
2022/05/24 00:44:34;;;;;;;15.30;2.30;;;;;;;17.22;83.93;101219.00;5033258;28;20465;-88
2022/05/24 00:47:17;;;;;;;11.93;2.60;;;;;;;17.30;84.20;101219.78;5052040;28;20437;-88
2022/05/24 00:49:49;;;;;;;16.37;2.53;;;;;;;17.18;84.72;101220.50;5079406;28;20458;-88
2022/05/24 00:52:20;;;;;;;9.20;1.63;;;;;;;17.19;83.93;101213.91;5087205;28;20490;-88
2022/05/24 00:54:51;;;;;;;10.43;2.20;;;;;;;17.17;84.74;101213.28;5048700;28;20438;-88
2022/05/24 00:57:32;;;;;;;15.00;1.93;;;;;;;17.19;85.51;101219.44;5049665;28;20487;-88
2022/05/24 01:00:08;;;;;;;11.77;2.00;;;;;;;17.21;85.63;101206.25;5049814;28;20493;-89
2022/05/24 01:02:37;;;;;;;13.20;2.30;;;;;;;17.22;85.96;101207.94;5049864;28;20443;-87
2022/05/24 01:05:08;;;;;;;12.33;2.17;;;;;;;17.17;86.11;101205.00;5064846;28;20445;-87
2022/05/24 01:07:37;;;;;;;14.27;2.27;;;;;;;17.16;86.26;101211.59;5048466;28;20537;-87
2022/05/24 01:10:08;;;;;;;12.73;2.70;;;;;;;17.26;85.83;101206.44;5048205;28;20446;-88
2022/05/24 01:12:46;;;;;;;16.90;2.43;;;;;;;17.19;85.81;101213.06;5048573;28;20471;-87
2022/05/24 01:15:17;;;;;;;14.00;2.07;;;;;;;17.22;85.89;101213.47;5048367;28;20533;-88
2022/05/24 01:17:45;;;;;;;9.70;2.23;;;;;;;17.12;85.95;101201.25;5047992;28;20913;-88
2022/05/24 01:20:14;;;;;;;11.17;2.17;;;;;;;17.15;85.59;101198.84;5048204;28;20533;-87
2022/05/24 01:23:14;;;;;;;13.13;1.90;;;;;;;17.11;84.37;101200.41;5069710;28;20443;-88
2022/05/24 01:26:10;;;;;;;20.47;2.87;;;;;;;17.08;84.50;101211.91;5040492;28;20984;-87
2022/05/24 01:28:49;;;;;;;8.03;1.97;;;;;;;17.05;83.37;101201.31;5031094;28;20836;-88
2022/05/24 01:31:18;;;;;;;7.77;1.37;;;;;;;16.99;82.95;101202.19;5014692;28;20478;-87
2022/05/24 01:36:35;;;;;;;13.33;1.80;;;;;;;17.01;83.30;101196.44;5039549;28;20430;-88
2022/05/24 01:39:08;;;;;;;18.00;2.10;;;;;;;16.96;84.00;101197.13;5046796;28;20493;-88
2022/05/24 01:41:40;;;;;;;12.00;2.30;;;;;;;16.97;84.35;101198.81;5014225;28;20442;-88
2022/05/24 01:44:09;;;;;;;6.80;1.53;;;;;;;16.96;84.88;101199.88;5030544;28;20612;-88
2022/05/24 01:46:39;;;;;;;13.10;2.00;;;;;;;16.96;84.81;101185.22;5019658;28;20458;-88
2022/05/24 01:49:14;;;;;;;14.17;2.13;;;;;;;16.98;84.96;101197.72;5008626;28;20443;-87
2022/05/24 01:52:06;;;;;;;8.80;2.03;;;;;;;16.95;84.19;101189.91;5041152;28;20887;-88
2022/05/24 01:54:39;;;;;;;9.40;2.97;;;;;;;16.84;84.21;101171.31;5013676;28;20449;-88
2022/05/24 01:57:39;;;;;;;12.70;2.53;;;;;;;16.92;84.06;101182.09;5047854;28;20607;-87
2022/05/24 02:00:09;;;;;;;12.53;2.23;;;;;;;16.93;84.56;101186.53;5052876;28;20450;-88
2022/05/24 02:02:37;;;;;;;10.20;1.70;;;;;;;16.89;83.96;101179.78;5033968;28;20451;-88
2022/05/24 02:05:06;;;;;;;10.50;2.27;;;;;;;16.80;84.70;101164.53;5074894;28;20481;-88
2022/05/24 02:07:34;;;;;;;6.30;1.90;;;;;;;16.91;84.07;101183.16;5053931;28;20450;-88
2022/05/24 02:10:02;;;;;;;5.67;1.00;;;;;;;16.88;84.01;101173.41;5053555;28;20453;-88
2022/05/24 02:12:33;;;;;;;9.20;2.00;;;;;;;16.95;83.72;101170.56;5053047;28;20533;-88
2022/05/24 02:15:09;;;;;;;13.77;1.63;;;;;;;16.94;84.14;101177.16;5053209;28;20458;-87
2022/05/24 02:17:41;;;;;;;22.50;2.00;;;;;;;16.87;84.12;101181.91;5053556;28;20901;-87
2022/05/24 02:20:14;;;;;;;11.13;1.60;;;;;;;16.84;84.44;101177.69;5033823;28;20509;-88
2022/05/24 02:22:42;;;;;;;8.70;1.53;;;;;;;16.77;84.28;101164.97;5033696;28;20933;-88
2022/05/24 02:25:21;;;;;;;16.63;2.07;;;;;;;16.79;84.60;101169.22;5033828;28;20448;-87
2022/05/24 02:27:50;;;;;;;8.20;1.87;;;;;;;16.76;84.43;101174.34;5033882;28;20786;-87
2022/05/24 02:30:21;;;;;;;7.30;1.60;;;;;;;16.73;84.41;101172.03;5033794;28;20439;-87
2022/05/24 02:33:09;;;;;;;12.77;1.80;;;;;;;16.71;83.26;101165.91;5053485;28;20461;-88
2022/05/24 02:35:37;;;;;;;6.20;1.67;;;;;;;16.69;83.17;101181.84;5052709;28;20964;-88
2022/05/24 02:38:07;;;;;;;6.93;1.60;;;;;;;16.67;82.70;101181.22;5053234;28;20941;-88
2022/05/24 02:43:24;;;;;;;6.90;1.53;;;;;;;16.65;82.04;101177.81;5054095;28;20874;-88
2022/05/24 02:45:52;;;;;;;7.73;1.13;;;;;;;16.62;82.14;101184.59;5053373;28;20797;-88
2022/05/24 02:48:19;;;;;;;8.70;1.40;;;;;;;16.61;82.27;101177.38;5034837;28;20873;-88
2022/05/24 02:50:47;;;;;;;8.43;1.47;;;;;;;16.54;82.86;101166.41;5044977;28;20651;-88
2022/05/24 02:53:15;;;;;;;5.80;1.50;;;;;;;16.60;82.64;101167.41;5053362;28;20481;-88
2022/05/24 02:55:43;;;;;;;14.23;2.20;;;;;;;16.58;82.69;101164.88;5036127;28;20538;-88
2022/05/24 02:58:10;;;;;;;9.67;1.80;;;;;;;16.54;83.21;101168.34;5044687;28;20992;-88
2022/05/24 03:00:38;;;;;;;10.83;1.40;;;;;;;16.47;83.13;101157.31;5034073;28;20443;-88
2022/05/24 03:03:07;;;;;;;10.57;1.70;;;;;;;16.51;83.44;101172.38;5020294;28;20497;-88
2022/05/24 03:05:37;;;;;;;11.03;2.07;;;;;;;16.50;83.36;101170.69;5052556;28;20447;-88
2022/05/24 03:10:53;;;;;;;4.30;1.17;;;;;;;16.47;83.72;101165.59;5019798;28;20436;-88
2022/05/24 03:16:13;;;;;;;10.20;1.50;;;;;;;16.48;83.01;101166.44;5021035;28;20538;-89
2022/05/24 03:18:41;;;;;;;13.40;1.97;;;;;;;16.42;83.55;101165.41;5084313;28;20596;-88
2022/05/24 03:21:10;;;;;;;9.03;1.53;;;;;;;16.45;83.19;101172.41;5018886;28;20494;-89
2022/05/24 03:23:38;;;;;;;6.53;1.57;;;;;;;16.32;83.88;101162.31;5052314;28;20443;-88
2022/05/24 03:26:08;;;;;;;5.97;1.67;;;;;;;16.36;83.87;101182.00;5019565;28;20936;-88
2022/05/24 03:28:37;;;;;;;7.10;1.73;;;;;;;16.34;84.10;101171.22;5053074;28;20970;-89
2022/05/24 03:31:07;;;;;;;9.63;2.23;;;;;;;16.33;84.25;101157.63;5035640;28;20431;-88
2022/05/24 03:33:36;;;;;;;11.50;2.17;;;;;;;16.28;84.05;101160.22;5036250;28;20521;-88
2022/05/24 03:36:06;;;;;;;8.40;1.47;;;;;;;16.36;83.97;101165.44;5034937;28;20952;-88
2022/05/24 03:38:34;;;;;;;12.93;1.50;;;;;;;16.35;83.70;101161.88;5047746;28;20489;-89
2022/05/24 03:41:03;;;;;;;9.63;1.83;;;;;;;16.40;83.84;101173.06;5034670;28;20893;-88
2022/05/24 03:43:31;;;;;;;10.50;1.50;;;;;;;16.37;83.74;101170.75;5066948;28;20534;-88
2022/05/24 03:46:26;;;;;;;12.03;2.17;;;;;;;16.22;84.08;101157.25;5051089;28;20528;-88
2022/05/24 03:48:55;;;;;;;11.53;2.30;;;;;;;16.30;83.70;101177.38;5071274;28;20518;-88
2022/05/24 03:51:24;;;;;;;5.70;1.10;;;;;;;16.19;83.49;101167.88;5018260;28;20474;-88
2022/05/24 03:53:52;;;;;;;11.30;1.60;;;;;;;16.27;83.89;101181.44;5051466;28;20874;-88
2022/05/24 03:56:22;;;;;;;9.17;1.87;;;;;;;16.24;83.70;101176.34;5015609;28;20451;-88
2022/05/24 03:58:51;;;;;;;8.27;1.10;;;;;;;16.26;83.83;101185.25;5067464;28;20474;-89
2022/05/24 04:01:21;;;;;;;13.63;1.80;;;;;;;16.24;83.45;101192.91;5048269;28;20439;-88
2022/05/24 04:03:52;;;;;;;5.13;1.20;;;;;;;16.22;84.11;101184.00;5082939;28;20799;-88
2022/05/24 04:06:20;;;;;;;6.93;1.40;;;;;;;16.21;83.73;101183.16;5034462;28;20438;-88
2022/05/24 04:08:48;;;;;;;19.27;2.40;;;;;;;16.20;84.62;101180.59;5051266;28;20820;-89
2022/05/24 04:11:16;;;;;;;11.37;1.93;;;;;;;16.14;84.37;101187.03;5018224;28;20462;-88
2022/05/24 04:13:43;;;;;;;11.30;1.97;;;;;;;16.13;83.97;101168.78;5002508;28;20788;-88
2022/05/24 04:16:11;;;;;;;9.20;1.83;;;;;;;16.15;83.37;101183.19;5034173;28;20796;-88
2022/05/24 04:18:40;;;;;;;10.30;1.33;;;;;;;16.15;83.72;101177.69;5050746;28;20513;-88
2022/05/24 04:21:09;;;;;;;8.10;1.83;;;;;;;16.13;83.53;101197.22;5051014;28;20465;-88
2022/05/24 04:23:42;;;;;;;7.90;1.53;;;;;;;16.08;83.57;101196.16;5066443;28;20433;-88
2022/05/24 04:26:12;;;;;;;16.57;2.30;;;;;;;16.05;83.51;101199.34;5066468;28;21010;-89
2022/05/24 04:28:41;;;;;;;5.70;1.40;;;;;;;16.03;83.82;101184.94;5063452;28;20446;-88
2022/05/24 04:31:10;;;;;;;8.70;1.77;;;;;;;16.04;83.78;101193.00;5082823;28;20450;-88
2022/05/24 04:33:39;;;;;;;9.70;2.00;;;;;;;16.03;83.39;101191.28;5045560;28;20540;-88
2022/05/24 04:36:09;;;;;;;11.00;2.07;;;;;;;15.99;83.21;101195.56;5084768;28;20459;-88
2022/05/24 04:38:37;;;;;;;18.40;1.93;;;;;;;16.02;83.05;101205.31;5083597;28;20488;-88
2022/05/24 04:43:56;;;;;;;8.30;1.90;;;;;;;15.95;82.85;101185.19;5033121;28;20455;-88
2022/05/24 04:47:06;;;;;;;12.37;1.50;;;;;;;15.94;82.77;101202.81;5035869;28;20428;-88
2022/05/24 04:49:14;;;;;;;6.87;1.70;;;;;;;15.91;82.42;101203.25;5036475;28;20473;-88
2022/05/24 04:51:43;;;;;;;12.37;2.60;;;;;;;15.94;82.04;101219.34;5028701;28;20458;-88
2022/05/24 04:54:10;;;;;;;5.93;1.07;;;;;;;15.89;81.69;101208.97;5024491;28;20440;-88
2022/05/24 04:56:38;;;;;;;10.13;1.47;;;;;;;15.95;81.81;101210.88;5047682;28;20454;-87
2022/05/24 04:59:07;;;;;;;10.87;1.40;;;;;;;15.96;81.89;101223.59;5045715;28;20490;-88
2022/05/24 05:01:34;;;;;;;11.43;1.13;;;;;;;15.90;81.97;101218.94;5067120;28;20497;-88
2022/05/24 05:04:03;;;;;;;7.40;1.47;;;;;;;15.91;81.41;101222.53;5051453;28;20453;-87
2022/05/24 05:06:33;;;;;;;8.00;1.50;;;;;;;15.89;81.79;101217.25;5051534;28;20451;-88
2022/05/24 05:09:00;;;;;;;7.87;1.67;;;;;;;15.85;81.43;101203.03;5039452;28;20526;-87
2022/05/24 05:11:28;;;;;;;10.93;1.40;;;;;;;15.87;81.89;101214.69;5017944;28;20458;-88
2022/05/24 05:13:57;;;;;;;12.93;2.10;;;;;;;15.87;81.97;101217.44;5051641;28;20441;-87
2022/05/24 05:16:26;;;;;;;10.33;1.83;;;;;;;15.87;82.30;101213.84;5028168;28;20440;-88
2022/05/24 05:18:55;;;;;;;10.97;1.57;;;;;;;15.83;81.46;101216.19;5031521;28;20475;-87
2022/05/24 05:21:24;;;;;;;13.20;2.63;;;;;;;15.83;81.76;101213.44;5032600;28;20444;-87
2022/05/24 05:23:53;;;;;;;9.93;2.53;;;;;;;15.86;81.63;101224.03;5084956;28;20469;-87
2022/05/24 05:26:22;;;;;;;9.40;1.43;;;;;;;15.86;81.50;101224.03;5053934;28;20466;-88
2022/05/24 05:28:51;;;;;;;8.63;1.13;;;;;;;15.80;81.61;101222.13;5054604;28;20475;-88
2022/05/24 05:31:27;;;;;;;8.30;1.50;;;;;;;15.85;81.58;101219.56;5048447;28;20958;-88
2022/05/24 05:33:57;;;;;;;8.63;1.13;;;;;;;15.79;82.13;101211.31;5020102;28;20427;-88
2022/05/24 05:36:27;;;;;;;4.93;1.10;;;;;;;15.84;81.84;101214.28;5050377;28;20459;-88
2022/05/24 05:38:58;;;;;;;9.40;1.40;;;;;;;15.79;81.81;101212.16;5052023;28;20488;-87
2022/05/24 05:41:52;;;;;;;7.87;1.83;;;;;;;15.84;82.11;101220.63;5054981;28;20430;-87
2022/05/24 05:44:22;;;;;;;7.87;1.00;;;;;;;15.84;81.53;101215.13;5040539;28;20457;-87
2022/05/24 05:46:51;;;;;;;6.87;1.10;;;;;;;15.80;82.26;101219.38;5075419;28;20489;-88
2022/05/24 05:49:19;;;;;;;2.80;1.30;;;;;;;15.83;82.11;101216.19;5034466;28;20448;-87
2022/05/24 05:51:47;;;;;;;7.67;2.37;;;;;;;15.81;81.95;101221.06;5033835;28;20789;-88
2022/05/24 05:54:15;;;;;;;7.57;1.10;;;;;;;15.85;82.05;101229.75;5034566;28;20454;-88
2022/05/24 05:56:45;;;;;;;16.63;1.47;;;;;;;15.84;81.75;101233.56;5018809;28;20444;-87
2022/05/24 05:59:15;;;;;;;6.97;1.77;;;;;;;15.87;81.48;101228.47;5053923;28;20492;-88
2022/05/24 06:01:43;;;;;;;14.50;1.87;;;;;;;15.90;81.56;101229.97;5048244;28;20526;-87
2022/05/24 06:04:11;;;;;;;9.10;1.30;;;;;;;15.92;81.67;101229.75;5051198;28;20443;-88
2022/05/24 06:06:41;;;;;;;9.53;1.83;;;;;;;15.94;81.22;101224.88;5036925;28;20440;-86
2022/05/24 06:09:09;;;;;;;4.50;1.03;;;;;;;15.94;81.51;101230.38;5009039;28;20533;-88
2022/05/24 06:11:38;;;;;;;12.83;1.60;;;;;;;15.91;81.05;101219.78;5037084;28;20467;-88
2022/05/24 06:14:06;;;;;;;7.67;1.73;;;;;;;15.97;81.21;101232.72;5054211;28;20499;-88
2022/05/24 06:16:34;;;;;;;11.83;1.53;;;;;;;16.00;80.61;101237.75;5053395;28;20952;-87
2022/05/24 06:19:02;;;;;;;7.70;1.40;;;;;;;15.99;80.42;101227.78;5054375;28;20482;-88
2022/05/24 06:21:33;;;;;;;9.60;1.37;;;;;;;16.05;79.90;101244.31;5052389;28;20451;-88
2022/05/24 06:24:03;;;;;;;11.37;1.77;;;;;;;16.11;79.83;101256.41;5054324;28;20447;-87
2022/05/24 06:26:31;;;;;;;13.03;1.67;;;;;;;16.21;79.58;101251.25;5053445;28;20936;-88
2022/05/24 06:29:01;;;;;;;6.47;1.13;;;;;;;16.17;80.03;101253.59;5018615;28;20487;-88
2022/05/24 06:31:31;;;;;;;5.27;1.10;;;;;;;16.16;80.31;101251.09;5038615;28;20460;-87
2022/05/24 06:33:59;;;;;;;9.87;1.40;;;;;;;16.22;79.89;101262.06;5036302;28;20442;-88
2022/05/24 06:36:28;;;;;;;8.50;1.23;;;;;;;16.31;80.36;101270.97;5036563;28;20496;-87
2022/05/24 06:38:57;;;;;;;5.63;1.07;;;;;;;16.42;79.07;101277.69;5053239;28;20535;-88
2022/05/24 06:41:25;;;;;;;8.77;1.50;;;;;;;16.41;79.19;101271.31;5086435;28;20485;-88
2022/05/24 06:43:54;;;;;;;8.20;1.03;;;;;;;16.52;79.22;101284.44;5053488;28;20439;-88
2022/05/24 06:46:23;;;;;;;5.30;1.20;;;;;;;16.50;79.77;101275.53;5055883;28;20581;-88
2022/05/24 06:48:52;;;;;;;14.90;1.53;;;;;;;16.52;79.97;101289.13;5053105;28;21003;-87
2022/05/24 06:51:22;;;;;;;12.67;1.67;;;;;;;16.57;79.50;101278.25;5035750;28;20490;-87
2022/05/24 06:53:50;;;;;;;9.73;1.90;;;;;;;16.64;79.45;101275.50;5053528;28;20857;-88
2022/05/24 06:56:22;;;;;;;6.97;1.43;;;;;;;16.70;79.50;101296.69;5037443;28;20427;-88
2022/05/24 07:02:24;;;;;;;8.07;1.20;;;;;;;16.74;79.32;101284.97;5036937;28;20490;-88
2022/05/24 07:04:24;;;;;;;8.73;1.40;;;;;;;16.84;78.72;101274.31;5030854;28;21001;-89
2022/05/24 07:06:52;;;;;;;10.07;1.80;;;;;;;16.92;78.43;101289.78;5055864;28;20512;-87
2022/05/24 07:09:23;;;;;;;13.20;1.43;;;;;;;17.00;78.18;101288.66;5033204;28;20485;-88
2022/05/24 07:11:51;;;;;;;13.20;2.03;;;;;;;17.05;77.85;101275.88;5037787;28;20462;-88
2022/05/24 07:14:19;;;;;;;12.97;1.63;;;;;;;17.09;76.91;101262.47;5019316;28;20949;-88
2022/05/24 07:16:47;;;;;;;7.50;1.43;;;;;;;17.15;77.23;101278.97;5048297;28;20549;-87
2022/05/24 07:19:16;;;;;;;7.30;1.47;;;;;;;17.21;75.99;101280.84;5064053;28;20955;-87
2022/05/24 07:21:45;;;;;;;6.27;1.27;;;;;;;17.27;76.74;101274.44;5015885;28;20450;-87
2022/05/24 07:24:14;;;;;;;10.50;1.43;;;;;;;17.32;76.46;101286.72;5084076;28;20439;-87
2022/05/24 07:26:43;;;;;;;5.73;1.53;;;;;;;17.33;75.90;101280.09;5049689;28;20435;-87
2022/05/24 07:29:21;;;;;;;11.73;2.40;;;;;;;17.39;75.07;101284.72;5054420;28;20920;-87
2022/05/24 07:31:49;;;;;;;7.13;1.57;;;;;;;17.46;75.11;101291.91;5025397;28;20443;-87
2022/05/24 07:34:17;;;;;;;5.10;1.10;;;;;;;17.53;74.26;101298.22;5053159;28;20967;-87
2022/05/24 07:36:45;;;;;;;8.97;1.33;;;;;;;17.59;74.53;101290.94;5035217;28;20486;-88
2022/05/24 07:39:13;;;;;;;5.03;1.13;;;;;;;17.61;74.09;101280.50;5021257;28;20471;-87
2022/05/24 07:47:35;;;;;;;5.77;1.53;;;;;;;17.63;71.85;101291.34;5043388;28;20810;-88
2022/05/24 07:50:04;;;;;;;8.53;1.30;;;;;;;17.70;72.38;101281.94;5032226;28;21013;-87
2022/05/24 07:52:32;;;;;;;8.70;1.30;;;;;;;17.83;71.86;101287.34;5047533;28;20447;-88
2022/05/24 07:55:01;;;;;;;3.13;0.90;;;;;;;17.90;71.80;101282.56;5036053;28;20866;-86
2022/05/24 07:57:32;;;;;;;6.23;1.20;;;;;;;18.01;72.20;101277.38;5053959;28;20463;-87
2022/05/24 08:00:06;;;;;;;9.40;1.67;;;;;;;18.06;71.36;101296.88;5082803;28;20531;-87
2022/05/24 08:02:35;;;;;;;8.57;1.07;;;;;;;18.09;70.85;101300.00;5056623;28;20443;-87
2022/05/24 08:05:05;;;;;;;13.87;1.50;;;;;;;18.08;71.36;101272.63;5035493;28;20537;-87
2022/05/24 08:07:34;;;;;;;7.17;1.63;;;;;;;18.14;70.74;101304.88;5035655;28;20882;-88
2022/05/24 08:10:05;;;;;;;8.17;1.90;;;;;;;18.22;70.76;101299.03;5032147;28;20800;-87
2022/05/24 08:12:32;;;;;;;7.00;1.20;;;;;;;18.43;69.96;101297.72;5045616;28;20857;-88
2022/05/24 08:15:04;;;;;;;5.00;1.20;;;;;;;18.46;70.39;101309.19;5042019;28;21015;-87
2022/05/24 08:17:31;;;;;;;8.73;1.70;;;;;;;18.50;69.89;101298.47;5051972;28;20434;-87
2022/05/24 08:20:00;;;;;;;13.33;1.90;;;;;;;18.46;70.27;101320.25;5065820;28;20580;-87
2022/05/24 08:22:28;;;;;;;7.07;1.27;;;;;;;18.49;70.45;101296.78;5032585;28;20489;-88
2022/05/24 08:24:57;;;;;;;5.63;1.40;;;;;;;18.65;69.42;101326.66;5045810;28;20966;-87
2022/05/24 08:27:26;;;;;;;12.23;2.60;;;;;;;18.63;69.65;101318.56;5047841;28;20474;-87
2022/05/24 08:29:57;;;;;;;6.50;1.13;;;;;;;18.51;69.64;101294.63;5053442;28;20996;-88
2022/05/24 08:32:26;;;;;;;5.90;1.20;;;;;;;18.54;69.28;101308.00;5048684;28;20796;-88
2022/05/24 08:34:54;;;;;;;10.10;1.70;;;;;;;18.62;68.72;101319.66;5040165;28;20869;-87
2022/05/24 08:37:23;;;;;;;12.40;2.00;;;;;;;18.56;68.15;101314.16;5031374;28;20520;-87
2022/05/24 08:39:57;;;;;;;10.10;1.70;;;;;;;18.69;68.47;101305.69;5032146;28;20473;-87
2022/05/24 08:42:36;;;;;;;6.13;1.30;;;;;;;18.77;67.23;101321.16;5034804;28;21003;-88
2022/05/24 08:48:26;;;;;;;20.97;2.07;;;;;;;18.68;67.12;101311.47;5038022;28;20443;-89
2022/05/24 08:51:15;;;;;;;7.10;1.43;;;;;;;18.75;67.00;101315.00;5068201;28;22820;-87
2022/05/24 08:53:46;;;;;;;8.93;1.80;;;;;;;18.77;66.72;101305.38;5044302;28;20450;-86
2022/05/24 08:56:17;;;;;;;12.80;1.93;;;;;;;18.90;65.97;101318.19;5050730;28;20439;-87
2022/05/24 08:58:56;;;;;;;8.13;1.40;;;;;;;18.92;65.70;101341.81;5036044;28;20443;-87
2022/05/24 09:01:32;;;;;;;6.90;1.30;;;;;;;18.86;66.03;101328.03;5056918;28;20445;-87
2022/05/24 09:04:05;;;;;;;9.47;1.40;;;;;;;18.83;66.21;101321.06;5037021;28;20450;-86
2022/05/24 09:07:17;;;;;;;7.97;1.10;;;;;;;19.03;66.21;101329.09;5020648;28;20801;-88
2022/05/24 09:10:15;;;;;;;6.47;1.43;;;;;;;19.04;66.38;101316.94;5032143;28;20488;-88
2022/05/24 09:16:15;;;;;;;11.17;1.90;;;;;;;19.31;67.42;101337.63;5043925;28;20477;-89
2022/05/24 09:19:10;;;;;;;7.10;1.50;;;;;;;19.39;67.04;101302.31;5056213;28;20924;-89
2022/05/24 09:21:42;;;;;;;9.80;1.90;;;;;;;19.48;66.35;101311.97;5056620;28;20465;-89
2022/05/24 09:24:41;;;;;;;12.37;1.70;;;;;;;19.58;66.24;101320.59;5024372;28;20485;-89
2022/05/24 09:27:15;;;;;;;5.33;1.40;;;;;;;19.62;65.69;101324.59;5055597;28;21017;-89
2022/05/24 09:30:02;;;;;;;6.97;1.43;;;;;;;19.62;66.06;101324.59;5055501;28;20854;-89
2022/05/24 09:32:38;;;;;;;13.13;1.90;;;;;;;19.62;65.88;101342.06;5024453;28;20462;-88
2022/05/24 09:35:11;;;;;;;7.77;1.57;;;;;;;19.62;66.51;101325.44;5055231;28;20442;-88
2022/05/24 09:37:41;;;;;;;13.63;1.80;;;;;;;19.73;65.62;101315.41;5038811;28;21017;-89
2022/05/24 09:40:20;;;;;;;10.03;1.53;;;;;;;19.84;65.18;101325.66;5023100;28;20517;-89
2022/05/24 09:42:54;;;;;;;8.73;1.57;;;;;;;19.96;64.56;101343.16;5022915;28;20442;-88
2022/05/24 09:45:24;;;;;;;9.17;1.70;;;;;;;19.94;64.07;101345.34;5055326;28;20453;-88
2022/05/24 09:47:55;;;;;;;9.40;1.67;;;;;;;19.98;64.32;101360.44;5022637;28;20962;-89
2022/05/24 09:50:31;;;;;;;8.47;2.03;;;;;;;20.10;64.65;101331.81;5023920;28;20861;-89
2022/05/24 09:53:17;;;;;;;16.20;1.97;;;;;;;20.21;63.42;101328.16;5055517;28;20446;-89
2022/05/24 09:55:52;;;;;;;12.30;1.67;;;;;;;20.27;63.50;101330.81;5022684;28;20438;-88
2022/05/24 09:58:34;;;;;;;8.30;1.50;;;;;;;20.23;63.12;101326.00;5054863;28;20453;-88
2022/05/24 10:01:07;;;;;;;9.50;2.70;;;;;;;20.25;63.11;101333.00;5022311;28;20576;-89
2022/05/24 10:03:48;;;;;;;13.57;3.90;;;;;;;20.24;63.36;101334.09;5022638;28;20449;-90
2022/05/24 10:06:24;;;;;;;16.13;5.90;;;;;;;20.36;62.86;101336.84;5024070;28;20492;-89
2022/05/24 10:08:55;;;;;;;6.83;2.20;;;;;;;20.34;63.25;101333.47;5022112;28;20441;-89
2022/05/24 10:11:30;;;;;;;8.97;1.23;;;;;;;20.39;63.01;101346.66;5022241;28;20449;-89
2022/05/24 10:14:17;;;;;;;4.73;1.43;;;;;;;20.42;62.65;101335.91;5054889;28;20434;-89
2022/05/24 10:17:00;;;;;;;10.00;1.17;;;;;;;20.46;62.53;101323.22;5054807;28;20454;-88
2022/05/24 10:19:45;;;;;;;4.90;1.17;;;;;;;20.52;62.34;101329.72;5054389;28;20481;-89
2022/05/24 10:22:31;;;;;;;8.47;1.73;;;;;;;20.60;62.03;101338.50;5038516;28;20445;-89
2022/05/24 10:25:09;;;;;;;15.43;2.40;;;;;;;20.68;61.21;101335.34;5054618;28;20457;-90
2022/05/24 10:28:02;;;;;;;16.57;2.03;;;;;;;20.79;61.18;101336.38;5054437;28;20564;-90
2022/05/24 10:30:53;;;;;;;11.23;1.70;;;;;;;20.79;60.48;101324.44;5055664;28;20458;-89
2022/05/24 10:39:46;;;;;;;8.57;1.97;;;;;;;20.93;60.08;101332.25;5043568;28;20470;-90
2022/05/24 10:42:59;;;;;;;4.40;1.30;;;;;;;21.16;58.65;101333.25;5050512;28;20532;-89
2022/05/24 10:45:49;;;;;;;11.40;1.33;;;;;;;21.20;58.65;101365.88;5048156;28;20432;-89
2022/05/24 10:48:27;;;;;;;6.17;1.60;;;;;;;21.13;59.01;101359.59;5047650;28;20456;-90
2022/05/24 10:51:16;;;;;;;16.17;2.10;;;;;;;21.22;59.05;101352.56;5050104;28;20431;-90
2022/05/24 10:53:57;;;;;;;16.77;1.90;;;;;;;21.21;58.04;101331.41;5031320;28;20885;-89
2022/05/24 10:56:39;;;;;;;12.40;2.13;;;;;;;21.43;57.73;101333.47;5066640;28;20497;-89
2022/05/24 10:59:34;;;;;;;10.23;1.67;;;;;;;21.52;57.57;101343.94;5033879;28;20487;-89
2022/05/24 11:02:31;;;;;;;8.60;1.53;;;;;;;21.57;56.16;101337.59;5035224;28;20626;-89
2022/05/24 11:05:17;;;;;;;7.23;1.30;;;;;;;21.62;56.09;101371.06;5033718;28;20516;-89
2022/05/24 11:07:47;;;;;;;7.10;1.30;;;;;;;21.68;55.84;101350.59;5066899;28;20448;-89
2022/05/24 11:10:41;;;;;;;12.77;2.27;;;;;;;21.63;55.28;101358.84;5033795;28;20534;-90
2022/05/24 11:13:10;;;;;;;8.27;1.43;;;;;;;21.58;56.35;101361.53;5016484;28;20904;-89
2022/05/24 11:15:46;;;;;;;6.60;1.60;;;;;;;21.74;55.97;101354.31;5033460;28;20494;-89
2022/05/24 11:18:23;;;;;;;6.50;1.67;;;;;;;21.73;55.86;101347.91;5032947;28;20454;-90
2022/05/24 11:20:59;;;;;;;8.80;1.20;;;;;;;21.67;54.86;101363.66;5016710;28;21004;-90
2022/05/24 11:23:34;;;;;;;9.60;1.30;;;;;;;21.65;55.86;101360.28;5034507;28;20439;-89
2022/05/24 11:26:13;;;;;;;10.20;1.10;;;;;;;21.73;55.26;101364.59;5049655;28;20810;-90
2022/05/24 11:28:51;;;;;;;11.10;1.33;;;;;;;21.77;54.83;101365.75;5049745;28;20448;-89
2022/05/24 11:31:40;;;;;;;13.77;2.17;;;;;;;21.85;54.55;101356.16;5032131;28;20443;-90
2022/05/24 11:34:15;;;;;;;4.23;0.80;;;;;;;21.99;54.26;101379.75;5031115;28;20445;-89
2022/05/24 11:36:48;;;;;;;7.50;1.20;;;;;;;21.97;54.12;101348.56;5032622;28;20460;-89
2022/05/24 11:39:23;;;;;;;4.70;1.07;;;;;;;22.10;53.84;101356.59;5033134;28;20435;-89
2022/05/24 11:42:42;;;;;;;6.73;1.40;;;;;;;22.22;53.88;101350.91;5033148;28;20445;-90
2022/05/24 11:45:30;;;;;;;5.33;1.50;;;;;;;22.47;53.56;101354.06;5016663;28;20436;-90
2022/05/24 11:48:07;;;;;;;9.17;2.00;;;;;;;22.59;51.62;101346.41;5033081;28;20482;-90
2022/05/24 11:50:50;;;;;;;7.13;1.50;;;;;;;22.60;52.15;101345.31;5033164;28;20506;-89
2022/05/24 11:53:40;;;;;;;6.63;1.13;;;;;;;22.56;50.81;101338.56;5049172;28;20917;-90
2022/05/24 11:56:16;;;;;;;5.20;1.13;;;;;;;22.48;51.73;101333.47;5065508;28;20431;-89
2022/05/24 11:58:46;;;;;;;7.30;1.37;;;;;;;22.60;51.15;101336.97;5032886;28;20463;-89
2022/05/24 12:01:23;;;;;;;5.67;1.40;;;;;;;22.68;51.37;101342.09;5048938;28;20486;-89
2022/05/24 12:09:58;;;;;;;9.53;1.17;;;;;;;22.89;50.24;101347.94;5060567;28;20455;-89
2022/05/24 12:12:35;;;;;;;9.40;1.40;;;;;;;22.90;51.37;101341.25;5048844;28;21003;-89
2022/05/24 12:15:13;;;;;;;13.70;1.63;;;;;;;22.84;52.50;101336.72;5032132;28;20574;-90
2022/05/24 12:17:44;;;;;;;5.80;1.50;;;;;;;22.78;52.14;101340.53;5049018;28;20459;-89
2022/05/24 12:20:38;;;;;;;8.73;1.50;;;;;;;22.68;52.31;101356.03;5031877;28;20483;-89
2022/05/24 12:23:14;;;;;;;10.90;1.73;;;;;;;22.75;52.52;101339.94;5033923;28;20454;-90
2022/05/24 12:26:03;;;;;;;15.37;1.50;;;;;;;22.92;53.03;101330.66;5032689;28;20434;-90
2022/05/24 12:28:37;;;;;;;10.10;1.40;;;;;;;22.97;52.41;101339.09;5048926;28;20534;-90
2022/05/24 12:31:28;;;;;;;17.27;2.57;;;;;;;22.88;52.57;101365.78;5032378;28;20443;-89
2022/05/24 12:34:00;;;;;;;9.10;1.60;;;;;;;22.87;53.34;101364.94;5015925;28;20450;-89